createdAt,value
2019-05-21T00:00:00.348Z,4.53
2019-05-21T00:02:29.391Z,4.30
2019-05-21T00:04:58.543Z,4.40
2019-05-21T00:07:33.741Z,4.17
2019-05-21T00:09:59.785Z,4.00
2019-05-21T00:12:25.972Z,4.30
2019-05-21T00:15:00.827Z,4.37
2019-05-21T00:17:27.526Z,4.37
2019-05-21T00:19:53.593Z,4.20
2019-05-21T00:22:19.712Z,4.43
2019-05-21T00:24:47.264Z,3.97
2019-05-21T00:27:13.369Z,4.33
2019-05-21T00:30:17.027Z,4.77
2019-05-21T00:33:30.157Z,4.77
2019-05-21T00:36:35.533Z,4.40
2019-05-21T00:39:39.267Z,4.20
2019-05-21T00:42:05.764Z,4.53
2019-05-21T00:44:44.755Z,4.23
2019-05-21T00:47:26.652Z,4.50
2019-05-21T00:49:56.484Z,4.80
2019-05-21T00:52:22.533Z,4.70
2019-05-21T00:54:48.588Z,4.73
2019-05-21T00:57:14.606Z,5.13
2019-05-21T00:59:41.008Z,5.00
2019-05-21T01:02:07.025Z,5.47
2019-05-21T01:04:33.051Z,5.60
2019-05-21T01:06:59.098Z,4.83
2019-05-21T01:09:25.146Z,5.57
2019-05-21T01:11:51.150Z,5.50
2019-05-21T01:14:17.288Z,5.97
2019-05-21T01:16:43.656Z,5.00
2019-05-21T01:19:10.254Z,5.60
2019-05-21T01:21:36.373Z,5.60
2019-05-21T01:24:10.369Z,6.40
2019-05-21T01:26:36.428Z,6.73
2019-05-21T01:29:04.388Z,7.23
2019-05-21T01:31:30.510Z,6.43
2019-05-21T01:33:56.523Z,7.20
2019-05-21T01:36:22.568Z,7.03
2019-05-21T01:38:48.600Z,6.53
2019-05-21T01:41:15.902Z,6.80
2019-05-21T01:43:53.136Z,6.90
2019-05-21T01:46:35.700Z,7.30
2019-05-21T01:49:06.050Z,6.50
2019-05-21T01:51:36.676Z,7.43
2019-05-21T01:54:05.797Z,7.90
2019-05-21T01:56:36.979Z,7.83
2019-05-21T01:59:03.407Z,7.40
2019-05-21T02:01:29.465Z,7.83
2019-05-21T02:03:56.724Z,7.47
2019-05-21T02:06:23.531Z,7.87
2019-05-21T02:08:51.510Z,8.00
2019-05-21T02:11:17.641Z,8.70
2019-05-21T02:13:44.069Z,18.63
2019-05-21T02:16:10.108Z,10.83
2019-05-21T02:18:36.244Z,8.23
2019-05-21T02:21:02.354Z,7.80
2019-05-21T02:23:28.621Z,8.10
2019-05-21T02:25:54.987Z,8.27
2019-05-21T02:28:21.313Z,8.67
2019-05-21T02:30:47.325Z,8.77
2019-05-21T02:33:13.364Z,8.00
2019-05-21T02:35:53.837Z,8.63
2019-05-21T02:38:07.316Z,8.67
2019-05-21T02:40:33.604Z,8.70
2019-05-21T02:42:59.654Z,8.73
2019-05-21T02:45:25.695Z,9.60
2019-05-21T02:47:51.760Z,9.90
2019-05-21T02:50:17.777Z,9.63
2019-05-21T02:52:44.930Z,9.37
2019-05-21T02:55:11.048Z,9.67
2019-05-21T02:57:38.530Z,10.43
2019-05-21T03:00:06.952Z,9.37
2019-05-21T03:02:34.892Z,10.47
2019-05-21T03:05:00.904Z,10.90
2019-05-21T03:07:26.920Z,12.37
2019-05-21T03:09:54.076Z,10.80
2019-05-21T03:12:20.413Z,10.83
2019-05-21T03:14:46.490Z,11.13
2019-05-21T03:17:32.427Z,11.67
2019-05-21T03:19:58.640Z,10.30
2019-05-21T03:22:24.652Z,11.37
2019-05-21T03:24:50.689Z,10.50
2019-05-21T03:27:16.702Z,13.00
2019-05-21T03:29:42.713Z,12.07
2019-05-21T03:32:08.794Z,11.80
2019-05-21T03:34:35.196Z,12.97
2019-05-21T03:37:01.197Z,11.33
2019-05-21T03:39:27.452Z,11.90
2019-05-21T03:41:53.751Z,11.00
2019-05-21T03:44:19.796Z,12.60
2019-05-21T03:46:45.905Z,12.23
2019-05-21T03:49:11.912Z,11.80
2019-05-21T03:51:37.927Z,10.70
2019-05-21T03:54:04.042Z,12.50
2019-05-21T03:56:30.316Z,12.57
2019-05-21T03:58:56.352Z,11.47
2019-05-21T04:01:22.575Z,12.53
2019-05-21T04:03:48.594Z,12.07
2019-05-21T04:06:14.604Z,12.63
2019-05-21T04:08:40.715Z,11.83
2019-05-21T04:11:06.738Z,12.23
2019-05-21T04:13:32.836Z,13.03
2019-05-21T04:16:00.794Z,13.10
2019-05-21T04:18:28.744Z,12.57
2019-05-21T04:20:54.905Z,10.50
2019-05-21T04:23:20.939Z,11.97
2019-05-21T04:25:47.191Z,10.77
2019-05-21T04:28:13.225Z,14.27
2019-05-21T04:30:40.189Z,12.53
2019-05-21T04:33:06.196Z,12.47
2019-05-21T04:35:32.212Z,12.90
2019-05-21T04:37:58.944Z,11.80
2019-05-21T04:40:24.968Z,13.40
2019-05-21T04:42:51.024Z,11.40
2019-05-21T04:45:17.127Z,12.50
2019-05-21T04:47:43.142Z,13.57
2019-05-21T04:50:09.153Z,14.50
2019-05-21T04:52:35.272Z,12.60
2019-05-21T04:55:01.593Z,18.67
2019-05-21T04:57:27.662Z,16.73
2019-05-21T04:59:53.811Z,15.33
2019-05-21T05:02:23.306Z,13.90
2019-05-21T05:04:51.337Z,14.20
2019-05-21T05:07:28.543Z,14.30
2019-05-21T05:09:53.364Z,13.57
2019-05-21T05:12:19.447Z,13.77
2019-05-21T05:14:45.564Z,13.70
2019-05-21T05:17:11.592Z,14.17
2019-05-21T05:19:37.667Z,13.27
2019-05-21T05:22:05.620Z,16.70
2019-05-21T05:24:31.724Z,15.27
2019-05-21T05:26:57.803Z,15.10
2019-05-21T05:29:23.949Z,15.67
2019-05-21T05:31:49.991Z,23.93
2019-05-21T05:34:18.927Z,18.30
2019-05-21T05:36:47.885Z,16.83
2019-05-21T05:39:23.328Z,14.87
2019-05-21T05:41:51.384Z,13.50
2019-05-21T05:44:17.473Z,13.87
2019-05-21T05:46:43.764Z,15.57
2019-05-21T05:49:12.633Z,16.40
2019-05-21T05:51:38.692Z,15.47
2019-05-21T05:54:07.591Z,14.57
2019-05-21T05:56:32.923Z,14.53
2019-05-21T05:59:04.121Z,15.27
2019-05-21T06:01:32.045Z,13.63
2019-05-21T06:03:58.258Z,15.50
2019-05-21T06:06:24.366Z,16.87
2019-05-21T06:08:50.375Z,18.60
2019-05-21T06:11:16.412Z,18.90
2019-05-21T06:13:42.445Z,19.27
2019-05-21T06:16:08.489Z,16.87
2019-05-21T06:18:35.636Z,18.13
2019-05-21T06:21:02.024Z,23.50
2019-05-21T06:23:31.977Z,19.10
2019-05-21T06:25:58.155Z,17.97
2019-05-21T06:28:24.215Z,18.50
2019-05-21T06:30:53.405Z,16.00
2019-05-21T06:33:19.508Z,19.03
2019-05-21T06:35:47.444Z,19.13
2019-05-21T06:38:17.745Z,17.87
2019-05-21T06:40:41.565Z,21.93
2019-05-21T06:43:07.581Z,19.27
2019-05-21T06:45:33.586Z,19.07
2019-05-21T06:47:59.760Z,18.40
2019-05-21T06:50:26.103Z,16.63
2019-05-21T06:52:52.103Z,18.10
2019-05-21T06:55:18.522Z,19.17
2019-05-21T06:57:44.554Z,18.40
2019-05-21T07:00:12.476Z,17.17
2019-05-21T07:02:38.649Z,15.97
2019-05-21T07:05:07.304Z,17.30
2019-05-21T07:07:35.079Z,16.97
2019-05-21T07:10:01.214Z,22.83
2019-05-21T07:12:30.119Z,23.93
2019-05-21T07:14:58.114Z,16.13
2019-05-21T07:17:25.542Z,14.97
2019-05-21T07:19:51.879Z,19.07
2019-05-21T07:22:37.886Z,17.00
2019-05-21T07:25:05.412Z,19.07
2019-05-21T07:27:31.441Z,18.33
2019-05-21T07:29:57.459Z,22.37
2019-05-21T07:32:26.253Z,20.00
2019-05-21T07:34:57.303Z,20.17
2019-05-21T07:37:24.495Z,17.27
2019-05-21T07:39:50.503Z,20.13
2019-05-21T07:42:16.563Z,19.90
2019-05-21T07:44:42.620Z,18.40
2019-05-21T07:47:08.656Z,18.03
2019-05-21T07:49:34.722Z,19.97
2019-05-21T07:52:03.612Z,18.83
2019-05-21T07:54:44.611Z,19.57
2019-05-21T07:57:10.752Z,18.30
2019-05-21T07:59:36.771Z,19.47
2019-05-21T08:02:03.139Z,19.80
2019-05-21T08:04:29.270Z,18.90
2019-05-21T08:06:55.369Z,19.90
2019-05-21T08:09:21.401Z,23.60
2019-05-21T08:11:53.584Z,22.03
2019-05-21T08:14:19.602Z,21.43
2019-05-21T08:16:48.693Z,21.63
2019-05-21T08:19:15.111Z,22.80
2019-05-21T08:21:41.128Z,22.33
2019-05-21T08:24:07.239Z,19.53
2019-05-21T08:26:38.179Z,21.73
2019-05-21T08:29:04.256Z,23.00
2019-05-21T08:31:30.359Z,22.30
2019-05-21T08:33:58.876Z,21.27
2019-05-21T08:36:24.916Z,21.20
2019-05-21T08:38:50.936Z,22.03
2019-05-21T08:41:16.996Z,21.70
2019-05-21T08:43:43.015Z,20.50
2019-05-21T08:46:09.050Z,21.23
2019-05-21T08:48:35.409Z,21.27
2019-05-21T08:51:01.423Z,19.30
2019-05-21T08:53:27.440Z,21.00
2019-05-21T08:55:53.992Z,18.97
2019-05-21T08:58:20.085Z,21.77
2019-05-21T09:00:46.209Z,19.37
2019-05-21T09:03:12.381Z,20.13
2019-05-21T09:05:38.495Z,17.17
2019-05-21T09:08:04.532Z,18.10
2019-05-21T09:10:31.787Z,15.90
2019-05-21T09:12:57.829Z,17.50
2019-05-21T09:15:23.901Z,16.93
2019-05-21T09:17:50.381Z,18.83
2019-05-21T09:20:16.894Z,17.27
2019-05-21T09:22:43.211Z,16.63
2019-05-21T09:25:09.472Z,15.97
2019-05-21T09:27:36.037Z,15.47
2019-05-21T09:30:05.383Z,14.13
2019-05-21T09:32:31.432Z,13.70
2019-05-21T09:34:57.447Z,15.63
2019-05-21T09:37:23.484Z,14.47
2019-05-21T09:39:49.992Z,14.00
2019-05-21T09:42:16.153Z,13.87
2019-05-21T09:44:44.074Z,13.37
2019-05-21T09:47:10.107Z,14.93
2019-05-21T09:49:36.154Z,16.53
2019-05-21T09:52:02.188Z,14.50
2019-05-21T09:54:28.223Z,13.30
2019-05-21T09:56:54.287Z,15.07
2019-05-21T09:59:39.187Z,21.83
2019-05-21T10:02:15.987Z,15.13
2019-05-21T10:04:42.680Z,19.63
2019-05-21T10:07:36.310Z,16.77
2019-05-21T10:09:55.297Z,18.73
2019-05-21T10:12:21.305Z,17.47
2019-05-21T10:14:50.428Z,18.23
2019-05-21T10:17:17.104Z,18.37
2019-05-21T10:19:44.539Z,15.93
2019-05-21T10:22:11.597Z,17.70
2019-05-21T10:24:45.650Z,18.33
2019-05-21T10:27:11.680Z,19.83
2019-05-21T10:29:38.231Z,16.93
2019-05-21T10:32:12.358Z,17.27
2019-05-21T10:34:38.410Z,16.47
2019-05-21T10:37:07.089Z,19.83
2019-05-21T10:39:33.145Z,18.70
2019-05-21T10:41:59.239Z,18.87
2019-05-21T10:44:25.262Z,17.40
2019-05-21T10:46:51.404Z,17.57
2019-05-21T10:49:20.524Z,16.70
2019-05-21T10:51:46.672Z,18.03
2019-05-21T10:54:12.824Z,14.60
2019-05-21T10:56:48.033Z,15.17
2019-05-21T10:59:07.061Z,18.57
2019-05-21T11:01:35.632Z,16.90
2019-05-21T11:04:21.473Z,16.23
2019-05-21T11:06:48.387Z,17.93
2019-05-21T11:09:16.303Z,15.30
2019-05-21T11:11:56.076Z,15.00
2019-05-21T11:14:25.554Z,17.30
2019-05-21T11:16:51.965Z,14.63
2019-05-21T11:19:18.007Z,16.67
2019-05-21T11:21:47.826Z,16.73
2019-05-21T11:24:18.468Z,16.53
2019-05-21T11:26:44.508Z,14.93
2019-05-21T11:29:16.717Z,16.83
2019-05-21T11:31:57.064Z,18.00
2019-05-21T11:34:18.339Z,14.80
2019-05-21T11:36:44.374Z,15.60
2019-05-21T11:39:10.399Z,18.30
2019-05-21T11:41:36.691Z,16.50
2019-05-21T11:44:02.709Z,17.67
2019-05-21T11:46:28.723Z,15.93
2019-05-21T11:48:55.349Z,13.90
2019-05-21T11:51:21.542Z,15.10
2019-05-21T11:53:47.548Z,13.50
2019-05-21T11:56:13.632Z,16.70
2019-05-21T11:58:43.085Z,14.77
2019-05-21T12:01:09.148Z,14.43
2019-05-21T12:03:35.536Z,16.77
2019-05-21T12:06:01.832Z,16.77
2019-05-21T12:08:27.868Z,14.77
2019-05-21T12:10:53.896Z,18.10
2019-05-21T12:13:20.689Z,15.50
2019-05-21T12:15:46.948Z,17.23
2019-05-21T12:18:13.062Z,15.20
2019-05-21T12:20:39.064Z,13.00
2019-05-21T12:23:05.117Z,14.80
2019-05-21T12:25:31.263Z,17.37
2019-05-21T12:27:57.673Z,16.40
2019-05-21T12:30:23.727Z,15.10
2019-05-21T12:32:50.255Z,17.37
2019-05-21T12:35:16.267Z,16.33
2019-05-21T12:37:42.381Z,14.30
2019-05-21T12:40:08.643Z,18.40
2019-05-21T12:42:34.702Z,18.50
2019-05-21T12:45:00.692Z,15.33
2019-05-21T12:47:27.202Z,17.40
2019-05-21T12:49:53.212Z,16.03
2019-05-21T12:52:19.293Z,16.60
2019-05-21T12:54:46.234Z,16.90
2019-05-21T12:57:12.460Z,17.37
2019-05-21T12:59:38.474Z,16.73
2019-05-21T13:02:04.517Z,18.27
2019-05-21T13:04:30.789Z,17.90
2019-05-21T13:06:56.846Z,17.80
2019-05-21T13:09:32.234Z,15.13
2019-05-21T13:11:50.851Z,16.77
2019-05-21T13:14:18.880Z,20.03
2019-05-21T13:16:44.913Z,18.27
2019-05-21T13:19:11.429Z,18.93
2019-05-21T13:21:37.672Z,19.87
2019-05-21T13:24:03.828Z,19.40
2019-05-21T13:26:30.227Z,18.63
2019-05-21T13:29:10.999Z,19.37
2019-05-21T13:31:43.564Z,18.23
2019-05-21T13:34:10.043Z,18.03
2019-05-21T13:36:36.059Z,20.13
2019-05-21T13:39:04.542Z,17.93
2019-05-21T13:41:30.652Z,19.43
2019-05-21T13:43:56.684Z,19.57
2019-05-21T13:46:22.832Z,18.47
2019-05-21T13:48:49.461Z,47.17
2019-05-21T13:51:15.537Z,24.77
2019-05-21T13:53:44.213Z,25.87
2019-05-21T13:56:16.631Z,21.13
2019-05-21T13:58:49.699Z,21.50
2019-05-21T14:01:16.433Z,27.50
2019-05-21T14:03:47.283Z,27.63
2019-05-21T14:06:40.024Z,28.23
2019-05-21T14:09:05.369Z,25.60
2019-05-21T14:11:39.242Z,25.90
2019-05-21T14:14:05.259Z,25.37
2019-05-21T14:16:34.622Z,27.43
2019-05-21T14:18:59.285Z,23.17
2019-05-21T14:21:25.309Z,21.90
2019-05-21T14:23:51.340Z,24.10
2019-05-21T14:26:19.315Z,22.07
2019-05-21T14:28:45.348Z,22.53
2019-05-21T14:31:14.364Z,21.03
2019-05-21T14:33:40.372Z,21.67
2019-05-21T14:36:06.581Z,21.73
2019-05-21T14:38:32.612Z,27.13
2019-05-21T14:40:58.636Z,28.53
2019-05-21T14:43:24.642Z,23.33
2019-05-21T14:45:51.059Z,22.13
2019-05-21T14:48:17.094Z,24.80
2019-05-21T14:50:43.194Z,23.23
2019-05-21T14:53:09.328Z,27.00
2019-05-21T14:55:35.340Z,25.13
2019-05-21T14:58:01.354Z,26.00
2019-05-21T15:00:30.711Z,31.03
2019-05-21T15:02:56.724Z,31.13
2019-05-21T15:05:22.741Z,36.27
2019-05-21T15:07:49.819Z,33.83
2019-05-21T15:10:16.089Z,31.10
2019-05-21T15:12:42.171Z,32.43
2019-05-21T15:15:08.378Z,26.17
2019-05-21T15:17:34.479Z,34.57
2019-05-21T15:20:02.443Z,51.73
2019-05-21T15:22:28.648Z,27.30
2019-05-21T15:24:54.989Z,26.60
2019-05-21T15:27:21.089Z,25.13
2019-05-21T15:29:47.124Z,26.73
2019-05-21T15:32:13.147Z,26.60
2019-05-21T15:34:39.177Z,23.27
2019-05-21T15:37:05.738Z,24.97
2019-05-21T15:39:31.876Z,23.07
2019-05-21T15:41:59.278Z,31.83
2019-05-21T15:44:26.362Z,20.43
2019-05-21T15:46:52.418Z,18.40
2019-05-21T15:49:35.602Z,18.17
2019-05-21T15:51:51.621Z,18.03
2019-05-21T15:54:33.717Z,14.83
2019-05-21T15:56:59.780Z,14.73
2019-05-21T15:59:33.523Z,13.67
2019-05-21T16:02:02.436Z,13.90
2019-05-21T16:04:31.060Z,13.13
2019-05-21T16:07:06.008Z,12.53
2019-05-21T16:09:37.447Z,12.43
2019-05-21T16:12:11.227Z,11.37
2019-05-21T16:14:40.527Z,10.83
2019-05-21T16:17:15.280Z,11.33
2019-05-21T16:19:41.312Z,11.30
2019-05-21T16:22:12.681Z,9.30
2019-05-21T16:24:49.275Z,11.17
2019-05-21T16:29:49.306Z,10.90
2019-05-21T16:32:20.472Z,11.20
2019-05-21T16:34:46.540Z,10.73
2019-05-21T16:37:18.243Z,12.10
2019-05-21T16:40:01.768Z,13.03
2019-05-21T16:42:36.424Z,13.30
2019-05-21T16:45:03.986Z,13.53
2019-05-21T16:47:46.327Z,15.00
2019-05-21T16:50:19.984Z,15.33
2019-05-21T16:52:55.620Z,14.00
2019-05-21T16:55:24.739Z,13.90
2019-05-21T16:57:50.768Z,13.30
2019-05-21T17:00:17.198Z,33.53
2019-05-21T17:02:43.245Z,14.30
2019-05-21T17:05:11.161Z,13.43
2019-05-21T17:07:37.197Z,13.37
2019-05-21T17:10:04.195Z,14.03
2019-05-21T17:12:30.261Z,16.47
2019-05-21T17:14:56.284Z,15.73
2019-05-21T17:17:22.383Z,18.30
2019-05-21T17:19:48.464Z,16.93
2019-05-21T17:22:19.891Z,18.47
2019-05-21T17:24:47.828Z,18.23
2019-05-21T17:27:13.860Z,17.53
2019-05-21T17:29:40.061Z,21.00
2019-05-21T17:32:06.861Z,20.87
2019-05-21T17:34:35.587Z,22.20
2019-05-21T17:37:03.521Z,22.40
2019-05-21T17:39:33.339Z,21.37
2019-05-21T17:42:15.088Z,21.77
2019-05-21T17:44:35.301Z,20.73
2019-05-21T17:47:01.291Z,23.37
2019-05-21T17:49:27.343Z,22.77
2019-05-21T17:51:53.495Z,24.43
2019-05-21T17:54:21.954Z,24.50
2019-05-21T17:56:57.868Z,27.47
2019-05-21T17:59:30.614Z,25.63
2019-05-21T18:01:56.741Z,24.00
2019-05-21T18:04:22.980Z,26.20
2019-05-21T18:06:49.264Z,28.43
2019-05-21T18:09:16.946Z,28.33
2019-05-21T18:11:56.274Z,24.87
2019-05-21T18:14:22.352Z,24.03
2019-05-21T18:16:48.478Z,23.97
2019-05-21T18:19:14.992Z,25.23
2019-05-21T18:21:53.263Z,27.07
2019-05-21T18:24:21.314Z,23.60
2019-05-21T18:26:47.341Z,24.53
2019-05-21T18:29:19.127Z,23.67
2019-05-21T18:32:17.664Z,25.80
2019-05-21T18:34:29.238Z,24.63
2019-05-21T18:37:28.784Z,24.27
2019-05-21T18:39:38.396Z,23.37
2019-05-21T18:42:21.731Z,24.40
2019-05-21T18:44:47.203Z,22.30
2019-05-21T18:47:21.768Z,24.80
2019-05-21T18:50:00.619Z,25.50
2019-05-21T18:52:32.658Z,22.53
2019-05-21T18:54:59.111Z,23.43
2019-05-21T18:57:29.932Z,22.83
2019-05-21T19:00:02.181Z,24.60
2019-05-21T19:02:28.347Z,22.97
2019-05-21T19:04:54.430Z,21.77
2019-05-21T19:07:20.517Z,22.20
2019-05-21T19:09:46.556Z,21.00
2019-05-21T19:12:12.571Z,21.53
2019-05-21T19:14:45.062Z,21.97
2019-05-21T19:17:06.750Z,21.27
2019-05-21T19:19:36.985Z,21.97
2019-05-21T19:22:06.248Z,21.03
2019-05-21T19:24:32.686Z,22.20
2019-05-21T19:26:58.691Z,21.77
2019-05-21T19:29:25.024Z,22.50
2019-05-21T19:31:51.143Z,26.67
2019-05-21T19:34:23.651Z,23.00
2019-05-21T19:36:49.747Z,20.57
2019-05-21T19:39:16.308Z,18.97
2019-05-21T19:41:42.319Z,19.60
2019-05-21T19:44:18.873Z,19.70
2019-05-21T19:46:44.897Z,18.37
2019-05-21T19:49:11.262Z,19.90
2019-05-21T19:51:43.109Z,19.63
2019-05-21T19:54:21.408Z,18.13
2019-05-21T19:56:55.532Z,16.57
2019-05-21T19:59:21.843Z,15.90
2019-05-21T20:01:48.366Z,17.10
2019-05-21T20:04:14.915Z,18.47
2019-05-21T20:06:40.919Z,20.20
2019-05-21T20:09:11.613Z,20.07
2019-05-21T20:11:37.686Z,17.70
2019-05-21T20:14:03.763Z,18.47
2019-05-21T20:16:30.129Z,18.90
2019-05-21T20:18:56.299Z,19.00
2019-05-21T20:21:22.853Z,18.97
2019-05-21T20:23:50.775Z,20.87
2019-05-21T20:26:18.305Z,19.27
2019-05-21T20:28:47.656Z,19.67
2019-05-21T20:31:14.345Z,21.37
2019-05-21T20:33:44.605Z,19.03
2019-05-21T20:36:10.640Z,27.53
2019-05-21T20:38:37.067Z,20.53
2019-05-21T20:41:03.286Z,21.57
2019-05-21T20:43:29.539Z,23.93
2019-05-21T20:45:57.011Z,25.23
2019-05-21T20:48:23.258Z,23.07
2019-05-21T20:50:49.947Z,23.57
2019-05-21T20:53:15.971Z,23.37
2019-05-21T20:55:41.983Z,24.50
2019-05-21T20:58:08.941Z,41.57
2019-05-21T21:00:43.098Z,22.67
2019-05-21T21:03:09.488Z,23.40
2019-05-21T21:05:36.174Z,26.53
2019-05-21T21:08:03.202Z,18.33
2019-05-21T21:10:29.607Z,19.07
2019-05-21T21:12:56.076Z,17.27
2019-05-21T21:15:22.900Z,18.30
2019-05-21T21:17:49.031Z,15.43
2019-05-21T21:20:15.067Z,16.40
2019-05-21T21:22:44.134Z,16.17
2019-05-21T21:25:10.175Z,15.93
2019-05-21T21:27:36.264Z,16.23
2019-05-21T21:30:06.024Z,16.20
2019-05-21T21:32:32.135Z,16.00
2019-05-21T21:34:58.164Z,16.20
2019-05-21T21:37:30.018Z,15.37
2019-05-21T21:39:56.491Z,15.33
2019-05-21T21:42:22.707Z,19.12
2019-05-21T21:44:48.715Z,14.73
2019-05-21T21:47:16.310Z,15.03
2019-05-21T21:49:43.384Z,14.47
2019-05-21T21:52:10.750Z,14.17
2019-05-21T21:54:37.683Z,15.57
2019-05-21T21:57:03.735Z,14.20
2019-05-21T21:59:29.748Z,14.13
2019-05-21T22:01:59.628Z,13.67
2019-05-21T22:04:28.378Z,14.60
2019-05-21T22:06:55.298Z,16.50
2019-05-21T22:09:23.203Z,14.97
2019-05-21T22:11:49.327Z,14.60
2019-05-21T22:14:15.763Z,15.70
2019-05-21T22:16:42.478Z,14.13
2019-05-21T22:19:08.659Z,16.40
2019-05-21T22:21:37.822Z,14.83
2019-05-21T22:24:04.164Z,13.97
2019-05-21T22:26:30.483Z,13.73
2019-05-21T22:28:56.532Z,13.60
2019-05-21T22:31:22.715Z,15.03
2019-05-21T22:33:48.819Z,14.10
2019-05-21T22:36:15.266Z,13.37
2019-05-21T22:38:41.279Z,13.73
2019-05-21T22:41:07.375Z,14.93
2019-05-21T22:43:33.510Z,13.27
2019-05-21T22:45:59.534Z,13.77
2019-05-21T22:48:25.638Z,14.23
2019-05-21T22:50:52.099Z,15.27
2019-05-21T22:53:18.154Z,15.83
2019-05-21T22:55:44.252Z,15.83
2019-05-21T22:58:10.689Z,14.87
2019-05-21T23:00:36.920Z,14.97
2019-05-21T23:03:04.683Z,15.13
2019-05-21T23:05:31.110Z,15.00
2019-05-21T23:08:01.207Z,15.93
2019-05-21T23:10:27.442Z,16.50
2019-05-21T23:12:53.922Z,15.97
2019-05-21T23:15:26.313Z,17.17
2019-05-21T23:17:55.633Z,16.47
2019-05-21T23:20:23.839Z,18.47
2019-05-21T23:22:51.766Z,16.07
2019-05-21T23:25:19.711Z,17.93
2019-05-21T23:27:47.632Z,17.43
2019-05-21T23:30:15.211Z,17.80
2019-05-21T23:32:41.448Z,17.70
2019-05-21T23:35:11.175Z,18.50
2019-05-21T23:37:39.219Z,16.10
2019-05-21T23:40:07.305Z,17.23
2019-05-21T23:42:33.815Z,15.43
2019-05-21T23:45:00.449Z,16.33
2019-05-21T23:47:27.278Z,17.73
2019-05-21T23:49:53.626Z,18.57
2019-05-21T23:52:19.751Z,18.07
2019-05-21T23:54:45.804Z,17.63
2019-05-21T23:57:13.716Z,18.33
2019-05-21T23:59:39.827Z,18.47
